Time;durP1;ratioP1;P1;durP2;ratioP2;P2;SDS_P1;SDS_P2;PMS_P1;PMS_P2;Temp;Humidity;BMP_temperature;BMP_pressure;BME280_temperature;BME280_humidity;BME280_pressure;Samples;Min_cycle;Max_cycle;Signal;HPM_P1;HPM_P2
2022/04/20 00:02:00;;;;;;;7.88;3.83;;;;;;;;;;5126823;28;20490;-43
2022/04/20 00:04:25;;;;;;;4.95;3.72;;;;;;;;;;5127500;28;21387;-46
2022/04/20 00:06:51;;;;;;;7.97;3.70;;;;;;;;;;5127020;28;20083;-46
2022/04/20 00:09:16;;;;;;;4.00;2.50;;;;;;;;;;5126621;28;20047;-42
2022/04/20 00:11:42;;;;;;;3.80;3.47;;;;;;;;;;5108610;28;20134;-42
2022/04/20 00:14:07;;;;;;;7.80;2.40;;;;;;;;;;5127798;28;20498;-45
2022/04/20 00:16:33;;;;;;;7.50;3.33;;;;;;;;;;5127175;28;20137;-47
2022/04/20 00:18:58;;;;;;;4.00;3.13;;;;;;;;;;5126833;28;20111;-44
2022/04/20 00:21:23;;;;;;;4.95;3.33;;;;;;;;;;5125922;28;20047;-46
2022/04/20 00:23:49;;;;;;;5.40;2.63;;;;;;;;;;5125413;28;20156;-46
2022/04/20 00:26:15;;;;;;;4.28;2.65;;;;;;;;;;5126856;28;20166;-42
2022/04/20 00:28:40;;;;;;;8.27;3.95;;;;;;;;;;5125683;28;20027;-47
2022/04/20 00:31:06;;;;;;;4.40;2.08;;;;;;;;;;5108154;28;20095;-46
2022/04/20 00:33:31;;;;;;;6.78;2.80;;;;;;;;;;5125944;28;20332;-44
2022/04/20 00:35:56;;;;;;;7.00;3.40;;;;;;;;;;5126027;28;20407;-46
2022/04/20 00:38:22;;;;;;;4.05;2.83;;;;;;;;;;5125999;28;20051;-45
2022/04/20 00:40:47;;;;;;;6.15;2.50;;;;;;;;;;5125597;28;20082;-43
2022/04/20 00:43:13;;;;;;;3.83;2.97;;;;;;;;;;5126011;27;20039;-46
2022/04/20 00:45:40;;;;;;;10.80;2.20;;;;;;;;;;5104490;28;20096;-45
2022/04/20 00:48:06;;;;;;;7.40;4.20;;;;;;;;;;5124617;28;20172;-44
2022/04/20 00:50:32;;;;;;;10.98;2.88;;;;;;;;;;5125733;28;20111;-45
2022/04/20 00:52:57;;;;;;;6.00;3.50;;;;;;;;;;5125764;28;20565;-46
2022/04/20 00:55:23;;;;;;;6.38;2.58;;;;;;;;;;5125734;28;20842;-45
2022/04/20 00:57:48;;;;;;;4.45;1.65;;;;;;;;;;5126588;28;20047;-43
2022/04/20 01:00:14;;;;;;;6.68;3.10;;;;;;;;;;5126429;28;20035;-45
2022/04/20 01:02:39;;;;;;;10.40;2.47;;;;;;;;;;5125912;28;20516;-46
2022/04/20 01:05:04;;;;;;;5.10;2.55;;;;;;;;;;5125155;28;20055;-46
2022/04/20 01:07:34;;;;;;;3.42;2.40;;;;;;;;;;5107803;28;20050;-47
2022/04/20 01:09:59;;;;;;;4.03;2.40;;;;;;;;;;5126136;28;20047;-46
2022/04/20 01:12:25;;;;;;;2.13;1.65;;;;;;;;;;5126154;28;20386;-48
2022/04/20 01:14:50;;;;;;;5.10;1.85;;;;;;;;;;5126077;28;20135;-45
2022/04/20 01:17:16;;;;;;;3.17;1.67;;;;;;;;;;5126115;28;20055;-45
2022/04/20 01:19:41;;;;;;;11.82;2.90;;;;;;;;;;5123887;28;20062;-44
2022/04/20 01:22:07;;;;;;;5.88;2.55;;;;;;;;;;5125529;28;20059;-45
2022/04/20 01:24:33;;;;;;;4.28;2.03;;;;;;;;;;5125223;28;20078;-47
2022/04/20 01:26:59;;;;;;;4.18;1.98;;;;;;;;;;5124380;28;20513;-43
2022/04/20 01:29:28;;;;;;;5.05;2.45;;;;;;;;;;5125028;28;20046;-42
2022/04/20 01:31:53;;;;;;;3.33;1.90;;;;;;;;;;5125894;28;20668;-44
2022/04/20 01:34:19;;;;;;;2.47;1.67;;;;;;;;;;5125878;28;20053;-45
2022/04/20 01:36:45;;;;;;;4.65;1.92;;;;;;;;;;5125514;28;20354;-43
2022/04/20 01:39:11;;;;;;;7.13;2.38;;;;;;;;;;5125492;28;20199;-43
2022/04/20 01:41:36;;;;;;;3.55;2.15;;;;;;;;;;5125268;28;20589;-41
2022/04/20 01:44:02;;;;;;;3.78;1.77;;;;;;;;;;5125787;28;20513;-45
2022/04/20 01:46:27;;;;;;;4.38;2.45;;;;;;;;;;5125967;28;20036;-42
2022/04/20 01:48:53;;;;;;;9.20;1.70;;;;;;;;;;5125929;28;20661;-41
2022/04/20 01:54:02;;;;;;;7.25;2.13;;;;;;;;;;5125710;28;20050;-43
2022/04/20 01:56:27;;;;;;;4.03;1.95;;;;;;;;;;5127104;27;20047;-42
2022/04/20 01:58:52;;;;;;;6.18;3.30;;;;;;;;;;5129161;28;20070;-42
2022/04/20 02:04:02;;;;;;;7.68;2.88;;;;;;;;;;5128566;28;20058;-42
2022/04/20 02:06:27;;;;;;;4.00;2.92;;;;;;;;;;5129010;28;20066;-42
2022/04/20 02:08:52;;;;;;;4.85;3.45;;;;;;;;;;5129227;28;20509;-42
2022/04/20 02:11:18;;;;;;;9.63;3.83;;;;;;;;;;5128861;28;20039;-43
2022/04/20 02:13:43;;;;;;;7.45;3.65;;;;;;;;;;5128500;28;20107;-43
2022/04/20 02:16:09;;;;;;;9.45;3.47;;;;;;;;;;5129365;28;20104;-46
2022/04/20 02:18:34;;;;;;;4.72;2.72;;;;;;;;;;5129275;28;20047;-43
2022/04/20 02:20:59;;;;;;;5.38;4.00;;;;;;;;;;5127858;28;20130;-46
2022/04/20 02:23:26;;;;;;;9.23;4.50;;;;;;;;;;5129088;28;20148;-50
2022/04/20 02:25:52;;;;;;;8.70;4.95;;;;;;;;;;5128363;28;20043;-43
2022/04/20 02:28:18;;;;;;;5.40;4.20;;;;;;;;;;5128724;28;20078;-45
2022/04/20 02:30:43;;;;;;;3.67;2.35;;;;;;;;;;5127903;28;20027;-44
2022/04/20 02:33:09;;;;;;;9.35;5.13;;;;;;;;;;5128090;28;20517;-47
2022/04/20 02:35:35;;;;;;;3.75;3.10;;;;;;;;;;5128095;28;20051;-45
2022/04/20 02:38:01;;;;;;;9.68;3.72;;;;;;;;;;5127892;28;20087;-46
2022/04/20 02:40:26;;;;;;;7.43;3.60;;;;;;;;;;5128253;28;20089;-43
2022/04/20 02:42:52;;;;;;;6.28;2.35;;;;;;;;;;5128599;28;20067;-47
2022/04/20 02:45:19;;;;;;;7.72;3.63;;;;;;;;;;5128232;28;20050;-44
2022/04/20 02:47:44;;;;;;;2.92;2.33;;;;;;;;;;5128413;28;20141;-45
2022/04/20 02:50:10;;;;;;;4.47;3.65;;;;;;;;;;5128120;28;20792;-44
2022/04/20 02:52:35;;;;;;;4.65;2.47;;;;;;;;;;5128032;28;20038;-43
2022/04/20 02:55:00;;;;;;;4.38;2.70;;;;;;;;;;5128421;28;20126;-42
2022/04/20 02:57:26;;;;;;;7.63;2.85;;;;;;;;;;5126380;28;20490;-44
2022/04/20 02:59:52;;;;;;;7.95;3.67;;;;;;;;;;5128337;28;20039;-43
2022/04/20 03:02:17;;;;;;;5.85;3.35;;;;;;;;;;5127469;28;20043;-44
2022/04/20 03:04:42;;;;;;;7.88;3.75;;;;;;;;;;5127579;28;20076;-48
2022/04/20 03:07:08;;;;;;;13.32;3.80;;;;;;;;;;5126621;27;20104;-47
2022/04/20 03:09:33;;;;;;;10.38;3.55;;;;;;;;;;5128484;28;20085;-44
2022/04/20 03:11:58;;;;;;;6.03;3.50;;;;;;;;;;5127428;28;20137;-48
2022/04/20 03:14:24;;;;;;;5.45;3.95;;;;;;;;;;5127710;28;20482;-44
2022/04/20 03:16:49;;;;;;;4.93;2.83;;;;;;;;;;5128198;28;20157;-44
2022/04/20 03:19:15;;;;;;;7.35;4.30;;;;;;;;;;5128506;28;20506;-43
2022/04/20 03:21:40;;;;;;;4.13;2.88;;;;;;;;;;5127078;28;20046;-45
2022/04/20 03:24:06;;;;;;;6.20;3.30;;;;;;;;;;5126952;28;20104;-46
2022/04/20 03:26:31;;;;;;;6.15;3.80;;;;;;;;;;5127341;28;20143;-45
2022/04/20 03:28:56;;;;;;;6.70;4.05;;;;;;;;;;5127622;28;20046;-47
2022/04/20 03:31:22;;;;;;;5.55;4.15;;;;;;;;;;5126602;28;20054;-47
2022/04/20 03:33:47;;;;;;;11.48;4.32;;;;;;;;;;5127272;28;20070;-48
2022/04/20 03:36:13;;;;;;;7.03;2.85;;;;;;;;;;5126771;28;20496;-45
2022/04/20 03:38:38;;;;;;;7.75;3.53;;;;;;;;;;5127193;28;20039;-44
2022/04/20 03:41:04;;;;;;;15.32;4.55;;;;;;;;;;5127494;28;20197;-43
2022/04/20 03:43:30;;;;;;;8.40;3.60;;;;;;;;;;5127173;28;20093;-45
2022/04/20 03:45:55;;;;;;;4.75;3.40;;;;;;;;;;5127326;28;20051;-47
2022/04/20 03:48:22;;;;;;;6.65;3.35;;;;;;;;;;5127671;28;20047;-45
2022/04/20 03:50:47;;;;;;;3.90;2.60;;;;;;;;;;5127145;28;20137;-43
2022/04/20 03:53:13;;;;;;;5.30;3.55;;;;;;;;;;5127325;28;20150;-46
2022/04/20 03:55:38;;;;;;;6.50;4.38;;;;;;;;;;5126756;28;20046;-42
2022/04/20 03:58:04;;;;;;;12.57;3.25;;;;;;;;;;5126901;28;20127;-44
2022/04/20 04:00:31;;;;;;;6.18;3.25;;;;;;;;;;5126931;28;20532;-42
2022/04/20 04:02:56;;;;;;;8.82;4.10;;;;;;;;;;5126642;28;20047;-45
2022/04/20 04:05:22;;;;;;;10.32;4.85;;;;;;;;;;5126985;28;20123;-45
2022/04/20 04:07:47;;;;;;;5.28;3.50;;;;;;;;;;5125848;28;20039;-43
2022/04/20 04:10:13;;;;;;;5.97;3.85;;;;;;;;;;5127045;28;20035;-50
2022/04/20 04:12:38;;;;;;;5.93;3.25;;;;;;;;;;5126319;28;20043;-44
2022/04/20 04:15:05;;;;;;;5.93;2.92;;;;;;;;;;5126775;28;20051;-44
2022/04/20 04:17:31;;;;;;;6.43;3.40;;;;;;;;;;5126845;27;20059;-44
2022/04/20 04:19:56;;;;;;;12.60;6.50;;;;;;;;;;5126065;28;20050;-47
2022/04/20 04:22:22;;;;;;;7.22;4.97;;;;;;;;;;5126499;28;20542;-43
2022/04/20 04:24:47;;;;;;;11.27;4.40;;;;;;;;;;5126485;28;20074;-44
2022/04/20 04:27:13;;;;;;;12.82;5.88;;;;;;;;;;5126443;28;20047;-50
2022/04/20 04:29:39;;;;;;;5.25;3.38;;;;;;;;;;5126342;28;20107;-43
2022/04/20 04:32:04;;;;;;;6.82;3.17;;;;;;;;;;5126705;28;20047;-47
2022/04/20 04:34:30;;;;;;;6.63;3.03;;;;;;;;;;5126353;28;20096;-45
2022/04/20 04:36:55;;;;;;;5.70;3.65;;;;;;;;;;5126211;28;20061;-47
2022/04/20 04:39:21;;;;;;;9.32;5.57;;;;;;;;;;5124706;28;20047;-44
2022/04/20 04:41:50;;;;;;;15.52;4.80;;;;;;;;;;5126232;28;20108;-44
2022/04/20 04:44:19;;;;;;;13.13;3.20;;;;;;;;;;5126366;28;20043;-43
2022/04/20 04:49:29;;;;;;;26.40;14.35;;;;;;;;;;5126172;28;20050;-45
2022/04/20 04:51:55;;;;;;;11.60;5.28;;;;;;;;;;5125847;28;20255;-42
2022/04/20 04:54:21;;;;;;;9.75;4.32;;;;;;;;;;5126691;28;20090;-47
2022/04/20 04:56:46;;;;;;;10.23;4.30;;;;;;;;;;5124642;28;20105;-48
2022/04/20 04:59:11;;;;;;;21.10;13.30;;;;;;;;;;5124866;28;20055;-49
2022/04/20 05:01:37;;;;;;;15.98;6.60;;;;;;;;;;5125482;28;20454;-43
2022/04/20 05:04:02;;;;;;;19.33;5.82;;;;;;;;;;5125706;28;20050;-43
2022/04/20 05:06:28;;;;;;;8.85;4.03;;;;;;;;;;5125597;28;20545;-43
2022/04/20 05:08:53;;;;;;;6.80;5.15;;;;;;;;;;5124425;28;20043;-43
2022/04/20 05:11:18;;;;;;;12.70;6.05;;;;;;;;;;5125896;28;20039;-42
2022/04/20 05:13:44;;;;;;;5.88;3.85;;;;;;;;;;5125276;28;20154;-44
2022/04/20 05:16:11;;;;;;;5.28;3.97;;;;;;;;;;5124772;28;20122;-45
2022/04/20 05:18:36;;;;;;;5.22;3.78;;;;;;;;;;5124931;28;20035;-45
2022/04/20 05:21:02;;;;;;;16.95;4.18;;;;;;;;;;5125480;28;20054;-44
2022/04/20 05:23:27;;;;;;;13.13;5.70;;;;;;;;;;5125356;28;20473;-43
2022/04/20 05:25:52;;;;;;;13.32;5.07;;;;;;;;;;5125227;28;20050;-42
2022/04/20 05:28:18;;;;;;;12.70;4.38;;;;;;;;;;5124773;28;20063;-46
2022/04/20 05:30:43;;;;;;;7.53;4.22;;;;;;;;;;5124182;27;20035;-43
2022/04/20 05:33:09;;;;;;;8.70;4.32;;;;;;;;;;5125841;28;20558;-44
2022/04/20 05:35:34;;;;;;;8.48;5.43;;;;;;;;;;5125442;28;20439;-43
2022/04/20 05:43:27;;;;;;;10.50;5.03;;;;;;;;;;5125329;28;20135;-46
2022/04/20 05:45:53;;;;;;;21.02;6.20;;;;;;;;;;5124830;28;20488;-44
2022/04/20 05:48:18;;;;;;;15.05;6.10;;;;;;;;;;5123836;28;20039;-42
2022/04/20 05:50:43;;;;;;;10.43;4.18;;;;;;;;;;5122942;28;20220;-47
2022/04/20 05:53:09;;;;;;;9.85;6.03;;;;;;;;;;5124282;28;20103;-40
2022/04/20 05:55:34;;;;;;;10.65;4.57;;;;;;;;;;5124298;28;20041;-44
2022/04/20 05:58:00;;;;;;;16.38;6.70;;;;;;;;;;5125466;28;20110;-43
2022/04/20 06:00:25;;;;;;;14.40;7.60;;;;;;;;;;5124295;28;20203;-39
2022/04/20 06:02:52;;;;;;;9.13;4.05;;;;;;;;;;5125377;28;20524;-39
2022/04/20 06:05:18;;;;;;;5.72;4.97;;;;;;;;;;5124640;28;20393;-43
2022/04/20 06:07:43;;;;;;;28.60;9.20;;;;;;;;;;5124817;28;20182;-42
2022/04/20 06:10:09;;;;;;;12.52;7.20;;;;;;;;;;5123157;28;20547;-47
2022/04/20 06:12:34;;;;;;;6.43;4.55;;;;;;;;;;5123020;28;20046;-44
2022/04/20 06:15:00;;;;;;;7.00;4.88;;;;;;;;;;5123450;28;20207;-45
2022/04/20 06:17:25;;;;;;;12.13;5.28;;;;;;;;;;5123326;28;20096;-43
2022/04/20 06:19:50;;;;;;;21.98;6.88;;;;;;;;;;5123629;28;20891;-49
2022/04/20 06:22:16;;;;;;;18.38;6.78;;;;;;;;;;5123629;28;20054;-45
2022/04/20 06:24:41;;;;;;;16.08;5.05;;;;;;;;;;5123609;28;20536;-47
2022/04/20 06:27:07;;;;;;;13.25;6.00;;;;;;;;;;5123733;28;20088;-45
2022/04/20 06:29:33;;;;;;;12.82;5.22;;;;;;;;;;5123886;28;20572;-45
2022/04/20 06:31:59;;;;;;;9.20;5.15;;;;;;;;;;5123902;28;20059;-46
2022/04/20 06:34:25;;;;;;;19.88;6.68;;;;;;;;;;5124033;28;20043;-43
2022/04/20 06:36:50;;;;;;;16.23;6.57;;;;;;;;;;5123711;28;20107;-52
2022/04/20 06:39:15;;;;;;;10.68;6.03;;;;;;;;;;5122875;28;20051;-51
2022/04/20 06:41:41;;;;;;;17.13;8.40;;;;;;;;;;5125855;27;20050;-51
2022/04/20 06:44:07;;;;;;;11.93;6.70;;;;;;;;;;5128441;28;20047;-52
2022/04/20 06:46:33;;;;;;;7.50;4.85;;;;;;;;;;5128483;28;20086;-49
2022/04/20 06:48:58;;;;;;;11.75;5.30;;;;;;;;;;5127447;28;20035;-50
2022/04/20 06:51:24;;;;;;;12.98;6.38;;;;;;;;;;5128538;28;20038;-54
2022/04/20 06:59:17;;;;;;;12.02;5.70;;;;;;;;;;5127248;28;20523;-53
2022/04/20 07:01:42;;;;;;;14.18;7.57;;;;;;;;;;5127296;28;20130;-50
2022/04/20 07:04:07;;;;;;;12.57;4.88;;;;;;;;;;5127867;28;20050;-53
2022/04/20 07:06:33;;;;;;;21.40;7.38;;;;;;;;;;5127644;28;20074;-55
2022/04/20 07:08:58;;;;;;;14.52;5.20;;;;;;;;;;5128508;28;20043;-56
2022/04/20 07:11:24;;;;;;;15.93;6.00;;;;;;;;;;5127823;28;20076;-49
2022/04/20 07:13:51;;;;;;;8.50;5.82;;;;;;;;;;5127759;28;20055;-55
2022/04/20 07:16:16;;;;;;;19.42;5.80;;;;;;;;;;5127598;28;20093;-51
2022/04/20 07:18:41;;;;;;;16.25;7.50;;;;;;;;;;5126397;28;20526;-52
2022/04/20 07:21:07;;;;;;;25.60;5.65;;;;;;;;;;5127344;28;20043;-57
2022/04/20 07:23:32;;;;;;;18.83;5.90;;;;;;;;;;5127230;28;20540;-56
2022/04/20 07:25:58;;;;;;;8.88;5.85;;;;;;;;;;5127183;28;20420;-51
2022/04/20 07:28:23;;;;;;;23.65;6.47;;;;;;;;;;5127098;28;20566;-51
2022/04/20 07:30:48;;;;;;;10.27;4.78;;;;;;;;;;5126789;28;20524;-45
2022/04/20 07:33:14;;;;;;;25.95;6.18;;;;;;;;;;5126999;28;20051;-52
2022/04/20 07:35:40;;;;;;;21.40;5.78;;;;;;;;;;5124246;28;20050;-52
2022/04/20 07:38:05;;;;;;;7.55;5.07;;;;;;;;;;5126911;28;20050;-51
2022/04/20 07:40:31;;;;;;;10.40;5.70;;;;;;;;;;5126987;28;20087;-53
2022/04/20 07:42:56;;;;;;;19.75;6.35;;;;;;;;;;5126904;28;20046;-51
2022/04/20 07:45:25;;;;;;;14.70;5.10;;;;;;;;;;5126782;28;20563;-52
2022/04/20 07:47:51;;;;;;;25.55;6.88;;;;;;;;;;5126503;28;20422;-52
2022/04/20 07:50:19;;;;;;;15.05;5.57;;;;;;;;;;5127199;28;20047;-49
2022/04/20 07:52:49;;;;;;;21.45;4.78;;;;;;;;;;5126026;27;20047;-51
2022/04/20 07:55:15;;;;;;;20.38;5.72;;;;;;;;;;5126849;28;20142;-52
2022/04/20 07:57:44;;;;;;;11.57;4.47;;;;;;;;;;5126142;28;20043;-52
2022/04/20 08:00:11;;;;;;;9.13;5.32;;;;;;;;;;5127214;28;20055;-49
2022/04/20 08:02:36;;;;;;;10.95;5.68;;;;;;;;;;5125679;28;20039;-50
2022/04/20 08:05:01;;;;;;;22.35;6.00;;;;;;;;;;5126797;28;20047;-47
2022/04/20 08:07:27;;;;;;;16.73;5.28;;;;;;;;;;5126305;28;20149;-52
2022/04/20 08:09:53;;;;;;;13.57;5.32;;;;;;;;;;5125526;28;20470;-51
2022/04/20 08:12:18;;;;;;;31.08;10.60;;;;;;;;;;5125935;28;20039;-52
2022/04/20 08:14:44;;;;;;;16.75;6.55;;;;;;;;;;5126547;28;20043;-51
2022/04/20 08:17:09;;;;;;;6.40;3.58;;;;;;;;;;5126081;28;20100;-52
2022/04/20 08:19:34;;;;;;;11.35;4.13;;;;;;;;;;5126239;28;20351;-50
2022/04/20 08:22:00;;;;;;;25.35;9.23;;;;;;;;;;5126568;28;20071;-50
2022/04/20 08:24:25;;;;;;;14.88;7.05;;;;;;;;;;5126770;28;20564;-52
2022/04/20 08:26:51;;;;;;;21.55;7.38;;;;;;;;;;5126347;28;20451;-52
2022/04/20 08:29:16;;;;;;;10.68;4.85;;;;;;;;;;5126653;28;20130;-47
2022/04/20 08:31:41;;;;;;;11.38;4.53;;;;;;;;;;5126732;28;20039;-50
2022/04/20 08:34:07;;;;;;;29.20;7.45;;;;;;;;;;5126691;28;20496;-53
2022/04/20 08:36:33;;;;;;;21.30;7.60;;;;;;;;;;5126899;28;20587;-51
2022/04/20 08:38:59;;;;;;;15.95;5.22;;;;;;;;;;5126300;28;20045;-49
2022/04/20 08:41:24;;;;;;;8.10;4.32;;;;;;;;;;5126401;28;20043;-48
2022/04/20 08:43:50;;;;;;;31.05;6.25;;;;;;;;;;5125275;28;20536;-48
2022/04/20 08:46:16;;;;;;;13.55;5.03;;;;;;;;;;5125756;28;20512;-48
2022/04/20 08:48:41;;;;;;;8.48;4.13;;;;;;;;;;5125779;28;20047;-52
2022/04/20 08:51:07;;;;;;;14.40;6.38;;;;;;;;;;5125714;28;20809;-52
2022/04/20 08:53:33;;;;;;;22.77;7.78;;;;;;;;;;5124826;28;20092;-46
2022/04/20 08:58:46;;;;;;;11.65;5.70;;;;;;;;;;5125954;28;20365;-50
2022/04/20 09:01:12;;;;;;;11.85;5.53;;;;;;;;;;5121833;28;20066;-51
2022/04/20 09:03:38;;;;;;;9.85;3.63;;;;;;;;;;5125141;28;20120;-48
2022/04/20 09:06:05;;;;;;;15.65;6.15;;;;;;;;;;5124774;27;20486;-45
2022/04/20 09:08:30;;;;;;;18.65;6.43;;;;;;;;;;5124645;28;20055;-47
2022/04/20 09:10:57;;;;;;;13.45;5.03;;;;;;;;;;5122586;28;20503;-48
2022/04/20 09:13:35;;;;;;;8.43;5.38;;;;;;;;;;5124255;28;20031;-46
2022/04/20 09:16:05;;;;;;;14.45;4.93;;;;;;;;;;5123550;28;20090;-47
2022/04/20 09:18:30;;;;;;;20.85;6.40;;;;;;;;;;5124515;28;20046;-51
2022/04/20 09:21:16;;;;;;;20.88;7.95;;;;;;;;;;5124116;28;20038;-48
2022/04/20 09:23:42;;;;;;;9.45;6.07;;;;;;;;;;5123544;28;20039;-45
2022/04/20 09:26:08;;;;;;;11.48;6.10;;;;;;;;;;5124385;28;20051;-48
2022/04/20 09:28:34;;;;;;;13.30;6.00;;;;;;;;;;5123873;28;20051;-46
2022/04/20 09:30:59;;;;;;;22.52;7.03;;;;;;;;;;5124465;28;20557;-48
2022/04/20 09:33:42;;;;;;;15.27;6.32;;;;;;;;;;5124392;28;20035;-51
2022/04/20 09:36:07;;;;;;;9.90;5.80;;;;;;;;;;5122792;28;20112;-51
2022/04/20 09:38:35;;;;;;;29.00;7.80;;;;;;;;;;5123430;28;20578;-49
2022/04/20 09:41:09;;;;;;;9.55;5.53;;;;;;;;;;5124555;28;20047;-53
2022/04/20 09:43:35;;;;;;;21.65;5.53;;;;;;;;;;5124964;28;20497;-54
2022/04/20 09:46:02;;;;;;;6.18;3.22;;;;;;;;;;5124366;28;20047;-46
2022/04/20 09:51:13;;;;;;;16.40;7.43;;;;;;;;;;5123424;28;20099;-44
2022/04/20 09:53:40;;;;;;;23.75;7.38;;;;;;;;;;5124297;28;20039;-50
2022/04/20 09:56:22;;;;;;;17.13;7.35;;;;;;;;;;5123244;28;20051;-47
2022/04/20 09:58:56;;;;;;;13.35;10.75;;;;;;;;;;5123815;28;20141;-49
2022/04/20 10:01:32;;;;;;;14.40;6.57;;;;;;;;;;5105091;28;20532;-45
2022/04/20 10:03:58;;;;;;;49.03;9.23;;;;;;;;;;5124075;28;20126;-50
2022/04/20 10:06:23;;;;;;;13.80;5.63;;;;;;;;;;5124798;28;20043;-50
2022/04/20 10:08:49;;;;;;;13.70;7.10;;;;;;;;;;5124748;28;20082;-48
2022/04/20 10:11:15;;;;;;;15.23;5.63;;;;;;;;;;5124251;28;20084;-50
2022/04/20 10:13:40;;;;;;;11.80;5.28;;;;;;;;;;5125368;28;20047;-51
2022/04/20 10:16:08;;;;;;;10.80;5.45;;;;;;;;;;5125116;27;20457;-56
2022/04/20 10:18:36;;;;;;;19.90;6.53;;;;;;;;;;5124650;28;20043;-52
2022/04/20 10:21:02;;;;;;;16.83;6.80;;;;;;;;;;5127723;28;20367;-48
2022/04/20 10:23:31;;;;;;;30.90;10.15;;;;;;;;;;5128853;28;20068;-48
2022/04/20 10:25:58;;;;;;;23.83;6.65;;;;;;;;;;5127648;28;20050;-52
2022/04/20 10:28:23;;;;;;;14.82;7.55;;;;;;;;;;5128657;28;20066;-51
2022/04/20 10:30:50;;;;;;;19.40;8.48;;;;;;;;;;5128125;28;20643;-52
2022/04/20 10:33:19;;;;;;;34.17;10.63;;;;;;;;;;5128326;28;20494;-52
2022/04/20 10:35:55;;;;;;;14.48;7.75;;;;;;;;;;5128792;28;20236;-51
2022/04/20 10:38:21;;;;;;;15.07;6.18;;;;;;;;;;5128555;28;20035;-49
2022/04/20 10:40:56;;;;;;;12.55;8.00;;;;;;;;;;5127461;28;20702;-45
2022/04/20 10:43:23;;;;;;;15.18;6.75;;;;;;;;;;5127469;28;20043;-50
2022/04/20 10:46:05;;;;;;;23.08;9.80;;;;;;;;;;5128292;28;20229;-50
2022/04/20 10:48:44;;;;;;;9.90;7.53;;;;;;;;;;5127205;28;20071;-50
2022/04/20 10:51:11;;;;;;;14.77;8.63;;;;;;;;;;5127594;28;20043;-52
2022/04/20 10:53:36;;;;;;;27.40;9.55;;;;;;;;;;5127707;28;20116;-54
2022/04/20 10:56:02;;;;;;;22.40;9.95;;;;;;;;;;5127738;28;20669;-50
2022/04/20 10:58:27;;;;;;;19.25;10.00;;;;;;;;;;5128812;28;20453;-50
2022/04/20 11:01:11;;;;;;;12.45;6.38;;;;;;;;;;5128592;28;20550;-56
2022/04/20 11:03:56;;;;;;;19.85;9.73;;;;;;;;;;5125642;28;20039;-57
2022/04/20 11:06:25;;;;;;;23.20;9.80;;;;;;;;;;5127885;28;20097;-58
2022/04/20 11:08:51;;;;;;;28.65;8.88;;;;;;;;;;5101331;28;20047;-59
2022/04/20 11:19:54;;;;;;;27.02;9.18;;;;;;;;;;5127438;28;20054;-58
2022/04/20 11:22:19;;;;;;;19.20;9.20;;;;;;;;;;5128057;28;20081;-59
2022/04/20 11:24:45;;;;;;;22.13;10.50;;;;;;;;;;5127748;28;20086;-53
2022/04/20 11:27:11;;;;;;;15.48;8.27;;;;;;;;;;5127020;27;20043;-51
2022/04/20 11:29:36;;;;;;;17.40;8.32;;;;;;;;;;5126997;28;20559;-46
2022/04/20 11:32:10;;;;;;;21.08;8.20;;;;;;;;;;5127614;28;20038;-49
2022/04/20 11:34:37;;;;;;;18.88;7.35;;;;;;;;;;5126730;28;20088;-52
2022/04/20 11:37:06;;;;;;;15.45;8.80;;;;;;;;;;5127114;28;20537;-56
2022/04/20 11:39:32;;;;;;;11.13;9.18;;;;;;;;;;5127550;28;20605;-54
2022/04/20 11:41:59;;;;;;;27.55;9.93;;;;;;;;;;5126565;28;20135;-62
2022/04/20 11:44:25;;;;;;;18.52;7.93;;;;;;;;;;5127353;28;20047;-58
2022/04/20 11:46:51;;;;;;;13.15;6.65;;;;;;;;;;5127002;28;20104;-57
2022/04/20 11:49:17;;;;;;;29.02;8.18;;;;;;;;;;5126587;28;20029;-55
2022/04/20 11:51:57;;;;;;;17.42;8.63;;;;;;;;;;5125524;28;20035;-52
2022/04/20 11:54:24;;;;;;;14.40;8.32;;;;;;;;;;5126082;28;20186;-49
2022/04/20 11:56:49;;;;;;;18.80;6.93;;;;;;;;;;5122473;28;20051;-47
2022/04/20 11:59:17;;;;;;;14.27;8.55;;;;;;;;;;5127420;28;20035;-50
2022/04/20 12:01:42;;;;;;;21.63;7.93;;;;;;;;;;5126031;28;20096;-49
2022/04/20 12:04:12;;;;;;;11.20;6.05;;;;;;;;;;5127486;28;20118;-52
2022/04/20 12:06:43;;;;;;;15.73;7.18;;;;;;;;;;5126381;28;20107;-53
2022/04/20 12:09:08;;;;;;;14.07;7.68;;;;;;;;;;5126495;28;20130;-48
2022/04/20 12:11:34;;;;;;;25.60;8.48;;;;;;;;;;5126869;28;20131;-54
2022/04/20 12:13:59;;;;;;;18.73;7.78;;;;;;;;;;5124645;28;20638;-55
2022/04/20 12:16:25;;;;;;;19.83;7.28;;;;;;;;;;5124580;28;20051;-56
2022/04/20 12:18:51;;;;;;;15.75;7.28;;;;;;;;;;5126183;28;20047;-55
2022/04/20 12:21:35;;;;;;;10.95;5.43;;;;;;;;;;5126111;28;20047;-56
2022/04/20 12:24:00;;;;;;;19.23;6.22;;;;;;;;;;5125294;28;20043;-56
2022/04/20 12:26:26;;;;;;;21.73;7.65;;;;;;;;;;5124897;28;20039;-54
2022/04/20 12:28:57;;;;;;;16.55;7.13;;;;;;;;;;5124975;28;20570;-57
2022/04/20 12:31:22;;;;;;;24.00;7.73;;;;;;;;;;5125698;28;20031;-55
2022/04/20 12:33:58;;;;;;;9.35;5.57;;;;;;;;;;5124341;28;20039;-56
2022/04/20 12:36:24;;;;;;;16.27;5.15;;;;;;;;;;5125120;28;20043;-57
2022/04/20 12:38:52;;;;;;;11.57;5.50;;;;;;;;;;5125357;27;20066;-57
2022/04/20 12:41:36;;;;;;;13.45;6.43;;;;;;;;;;5125905;28;20119;-57
2022/04/20 12:44:22;;;;;;;17.58;6.20;;;;;;;;;;5125297;28;20055;-56
2022/04/20 12:46:47;;;;;;;11.73;5.78;;;;;;;;;;5071739;28;20077;-58
2022/04/20 12:49:23;;;;;;;18.90;5.75;;;;;;;;;;5126136;28;20067;-57
2022/04/20 12:51:49;;;;;;;26.83;7.35;;;;;;;;;;5125727;28;20616;-58
2022/04/20 12:54:24;;;;;;;24.60;6.38;;;;;;;;;;5125752;28;20185;-58
2022/04/20 13:02:18;;;;;;;14.50;4.63;;;;;;;;;;5122972;28;20079;-58
2022/04/20 13:04:50;;;;;;;14.45;5.25;;;;;;;;;;5125483;28;20619;-58
2022/04/20 13:07:16;;;;;;;13.93;5.13;;;;;;;;;;5125433;28;20075;-59
2022/04/20 13:09:41;;;;;;;8.48;6.45;;;;;;;;;;5126779;28;20399;-59
2022/04/20 13:12:07;;;;;;;17.42;4.55;;;;;;;;;;5125933;28;20069;-58
2022/04/20 13:14:32;;;;;;;15.55;4.10;;;;;;;;;;5125883;28;20613;-59
2022/04/20 13:16:58;;;;;;;7.32;3.97;;;;;;;;;;5124910;28;20042;-58
2022/04/20 13:19:23;;;;;;;7.85;4.65;;;;;;;;;;5125441;28;20070;-58
2022/04/20 13:21:48;;;;;;;14.80;6.25;;;;;;;;;;5125518;28;20474;-58
2022/04/20 13:27:53;;;;;;;12.18;4.18;;;;;;;;;;5125828;28;20533;-58
2022/04/20 13:29:44;;;;;;;8.35;4.65;;;;;;;;;;5125217;28;20104;-57
2022/04/20 13:32:10;;;;;;;12.50;5.63;;;;;;;;;;5124279;28;20043;-57
2022/04/20 13:34:35;;;;;;;19.05;5.32;;;;;;;;;;5125168;28;20050;-58
2022/04/20 13:37:01;;;;;;;21.23;5.28;;;;;;;;;;5124293;28;20138;-58
2022/04/20 13:39:26;;;;;;;15.38;6.18;;;;;;;;;;5125173;28;20104;-57
2022/04/20 13:41:51;;;;;;;12.05;4.97;;;;;;;;;;5125560;28;20075;-57
2022/04/20 13:44:17;;;;;;;15.70;4.55;;;;;;;;;;5125453;28;20088;-58
2022/04/20 13:46:42;;;;;;;11.60;4.25;;;;;;;;;;5124803;28;20074;-57
2022/04/20 13:49:08;;;;;;;7.10;3.75;;;;;;;;;;5125246;28;20043;-57
2022/04/20 13:51:33;;;;;;;17.33;6.55;;;;;;;;;;5124064;27;20132;-57
2022/04/20 13:53:59;;;;;;;16.52;5.60;;;;;;;;;;5123803;27;20084;-59
2022/04/20 13:56:24;;;;;;;12.57;4.15;;;;;;;;;;5125909;28;20464;-57
2022/04/20 13:58:50;;;;;;;10.30;4.13;;;;;;;;;;5125838;28;20119;-54
2022/04/20 14:01:16;;;;;;;8.93;3.13;;;;;;;;;;5125341;28;20046;-55
2022/04/20 14:03:42;;;;;;;13.77;5.57;;;;;;;;;;5125015;28;20118;-54
2022/04/20 14:06:07;;;;;;;18.50;4.72;;;;;;;;;;5125830;28;20557;-55
2022/04/20 14:08:33;;;;;;;17.25;4.82;;;;;;;;;;5125492;28;20045;-56
2022/04/20 14:10:58;;;;;;;12.63;3.20;;;;;;;;;;5124358;28;20042;-55
2022/04/20 14:13:24;;;;;;;6.93;4.53;;;;;;;;;;5126050;28;20104;-56
2022/04/20 14:15:49;;;;;;;9.15;3.00;;;;;;;;;;5125574;28;20039;-57
2022/04/20 14:18:15;;;;;;;7.95;3.53;;;;;;;;;;5126269;28;20039;-54
2022/04/20 14:20:41;;;;;;;14.18;3.70;;;;;;;;;;5126034;28;20490;-54
2022/04/20 14:23:06;;;;;;;10.43;4.60;;;;;;;;;;5125565;28;20039;-56
2022/04/20 14:33:44;;;;;;;15.35;4.22;;;;;;;;;;5124950;28;20529;-55
2022/04/20 14:36:09;;;;;;;12.57;2.92;;;;;;;;;;5124679;28;20047;-56
2022/04/20 14:38:34;;;;;;;8.65;5.22;;;;;;;;;;5099805;28;20178;-56
2022/04/20 14:41:00;;;;;;;20.00;3.67;;;;;;;;;;5124321;28;20039;-57
2022/04/20 14:43:26;;;;;;;11.63;4.07;;;;;;;;;;5124772;28;20051;-56
2022/04/20 14:45:51;;;;;;;12.38;3.50;;;;;;;;;;5124610;28;20054;-54
2022/04/20 14:48:16;;;;;;;5.75;2.08;;;;;;;;;;5124758;28;20133;-54
2022/04/20 14:50:43;;;;;;;9.20;2.90;;;;;;;;;;5124746;28;20099;-58
2022/04/20 14:53:09;;;;;;;7.97;2.08;;;;;;;;;;5124672;28;20123;-55
2022/04/20 14:55:36;;;;;;;6.47;2.95;;;;;;;;;;5124116;28;20047;-57
2022/04/20 14:58:02;;;;;;;4.95;2.08;;;;;;;;;;5123971;28;20071;-54
2022/04/20 15:00:27;;;;;;;4.70;1.60;;;;;;;;;;5124823;28;20463;-55
2022/04/20 15:02:53;;;;;;;1.48;0.70;;;;;;;;;;5125931;27;20039;-57
2022/04/20 15:05:19;;;;;;;4.10;1.38;;;;;;;;;;5109201;28;20035;-57
2022/04/20 15:07:45;;;;;;;2.15;1.02;;;;;;;;;;5127167;28;20047;-56
2022/04/20 15:10:10;;;;;;;3.85;0.77;;;;;;;;;;5127140;28;20046;-58
2022/04/20 15:12:37;;;;;;;2.22;1.02;;;;;;;;;;5127424;28;20042;-58
2022/04/20 15:15:03;;;;;;;3.30;1.27;;;;;;;;;;5126993;28;20053;-57
2022/04/20 15:17:29;;;;;;;8.27;1.60;;;;;;;;;;5127873;28;20517;-58
2022/04/20 15:19:56;;;;;;;2.78;1.92;;;;;;;;;;5127991;28;20043;-56
2022/04/20 15:22:21;;;;;;;3.42;1.02;;;;;;;;;;5127269;28;20143;-56